sensor_id;sensor_type;location;lat;lon;timestamp;P1;durP1;ratioP1;P2;durP2;ratioP2
71343;SDS011;59146;43.850;25.948;2024-02-28T00:01:05;34.92;;;12.48;;
71343;SDS011;59146;43.850;25.948;2024-02-28T00:03:30;29.52;;;11.02;;
71343;SDS011;59146;43.850;25.948;2024-02-28T00:05:57;30.52;;;12.85;;
71343;SDS011;59146;43.850;25.948;2024-02-28T00:08:23;37.58;;;12.45;;
71343;SDS011;59146;43.850;25.948;2024-02-28T00:10:48;33.38;;;11.02;;
71343;SDS011;59146;43.850;25.948;2024-02-28T00:13:14;35.65;;;12.23;;
71343;SDS011;59146;43.850;25.948;2024-02-28T00:15:40;31.10;;;12.18;;
71343;SDS011;59146;43.850;25.948;2024-02-28T00:18:06;37.95;;;11.98;;
71343;SDS011;59146;43.850;25.948;2024-02-28T00:20:32;40.72;;;11.88;;
71343;SDS011;59146;43.850;25.948;2024-02-28T00:22:57;34.78;;;11.68;;
71343;SDS011;59146;43.850;25.948;2024-02-28T00:25:23;34.58;;;10.65;;
71343;SDS011;59146;43.850;25.948;2024-02-28T00:27:48;31.58;;;11.98;;
71343;SDS011;59146;43.850;25.948;2024-02-28T00:30:14;36.92;;;12.05;;
71343;SDS011;59146;43.850;25.948;2024-02-28T00:32:39;35.38;;;11.55;;
71343;SDS011;59146;43.850;25.948;2024-02-28T00:35:04;33.67;;;12.30;;
71343;SDS011;59146;43.850;25.948;2024-02-28T00:37:30;29.00;;;10.75;;
71343;SDS011;59146;43.850;25.948;2024-02-28T00:39:56;35.45;;;10.55;;
71343;SDS011;59146;43.850;25.948;2024-02-28T00:42:21;34.08;;;11.35;;
71343;SDS011;59146;43.850;25.948;2024-02-28T00:44:47;22.88;;;10.55;;
71343;SDS011;59146;43.850;25.948;2024-02-28T00:47:12;32.47;;;11.45;;
71343;SDS011;59146;43.850;25.948;2024-02-28T00:49:38;28.88;;;10.90;;
71343;SDS011;59146;43.850;25.948;2024-02-28T00:52:03;31.25;;;11.68;;
71343;SDS011;59146;43.850;25.948;2024-02-28T00:54:29;20.05;;;10.23;;
71343;SDS011;59146;43.850;25.948;2024-02-28T00:56:54;26.45;;;9.77;;
71343;SDS011;59146;43.850;25.948;2024-02-28T00:59:20;32.13;;;10.75;;
71343;SDS011;59146;43.850;25.948;2024-02-28T01:01:45;33.22;;;10.07;;
71343;SDS011;59146;43.850;25.948;2024-02-28T01:04:10;31.73;;;10.45;;
71343;SDS011;59146;43.850;25.948;2024-02-28T01:06:36;27.20;;;10.00;;
71343;SDS011;59146;43.850;25.948;2024-02-28T01:09:02;22.58;;;9.38;;
71343;SDS011;59146;43.850;25.948;2024-02-28T01:11:28;24.88;;;9.43;;
71343;SDS011;59146;43.850;25.948;2024-02-28T01:13:53;28.27;;;11.35;;
71343;SDS011;59146;43.850;25.948;2024-02-28T01:16:19;30.55;;;10.23;;
71343;SDS011;59146;43.850;25.948;2024-02-28T01:18:44;27.45;;;10.55;;
71343;SDS011;59146;43.850;25.948;2024-02-28T01:21:10;24.52;;;11.23;;
71343;SDS011;59146;43.850;25.948;2024-02-28T01:23:35;24.55;;;10.38;;
71343;SDS011;59146;43.850;25.948;2024-02-28T01:26:00;29.60;;;9.50;;
71343;SDS011;59146;43.850;25.948;2024-02-28T01:28:29;25.27;;;10.00;;
71343;SDS011;59146;43.850;25.948;2024-02-28T01:30:54;24.13;;;9.27;;
71343;SDS011;59146;43.850;25.948;2024-02-28T01:33:19;23.50;;;9.07;;
71343;SDS011;59146;43.850;25.948;2024-02-28T01:35:45;27.52;;;9.98;;
71343;SDS011;59146;43.850;25.948;2024-02-28T01:38:10;25.15;;;8.90;;
71343;SDS011;59146;43.850;25.948;2024-02-28T01:40:36;26.05;;;9.38;;
71343;SDS011;59146;43.850;25.948;2024-02-28T01:43:02;26.60;;;9.75;;
71343;SDS011;59146;43.850;25.948;2024-02-28T01:45:29;26.40;;;9.85;;
71343;SDS011;59146;43.850;25.948;2024-02-28T01:47:54;28.30;;;9.98;;
71343;SDS011;59146;43.850;25.948;2024-02-28T01:50:20;24.35;;;9.25;;
71343;SDS011;59146;43.850;25.948;2024-02-28T01:52:45;20.73;;;9.00;;
71343;SDS011;59146;43.850;25.948;2024-02-28T01:55:11;32.47;;;10.43;;
71343;SDS011;59146;43.850;25.948;2024-02-28T01:57:36;28.65;;;10.82;;
71343;SDS011;59146;43.850;25.948;2024-02-28T02:00:02;22.73;;;9.60;;
71343;SDS011;59146;43.850;25.948;2024-02-28T02:02:29;27.95;;;9.48;;
71343;SDS011;59146;43.850;25.948;2024-02-28T02:04:55;25.40;;;9.30;;
71343;SDS011;59146;43.850;25.948;2024-02-28T02:07:22;31.80;;;9.55;;
71343;SDS011;59146;43.850;25.948;2024-02-28T02:09:48;34.72;;;9.35;;
71343;SDS011;59146;43.850;25.948;2024-02-28T02:12:15;24.33;;;9.57;;
71343;SDS011;59146;43.850;25.948;2024-02-28T02:14:41;33.08;;;10.48;;
71343;SDS011;59146;43.850;25.948;2024-02-28T02:17:06;34.20;;;10.68;;
71343;SDS011;59146;43.850;25.948;2024-02-28T02:19:32;30.05;;;10.45;;
71343;SDS011;59146;43.850;25.948;2024-02-28T02:21:58;25.90;;;9.73;;
71343;SDS011;59146;43.850;25.948;2024-02-28T02:24:24;30.73;;;10.82;;
71343;SDS011;59146;43.850;25.948;2024-02-28T02:26:54;27.17;;;10.13;;
71343;SDS011;59146;43.850;25.948;2024-02-28T02:29:20;34.92;;;11.25;;
71343;SDS011;59146;43.850;25.948;2024-02-28T02:31:46;24.88;;;10.02;;
71343;SDS011;59146;43.850;25.948;2024-02-28T02:34:11;30.15;;;9.73;;
71343;SDS011;59146;43.850;25.948;2024-02-28T02:36:37;26.40;;;9.70;;
71343;SDS011;59146;43.850;25.948;2024-02-28T02:39:02;28.88;;;10.60;;
71343;SDS011;59146;43.850;25.948;2024-02-28T02:41:28;26.63;;;10.00;;
71343;SDS011;59146;43.850;25.948;2024-02-28T02:43:53;29.88;;;10.50;;
71343;SDS011;59146;43.850;25.948;2024-02-28T02:46:19;27.73;;;10.57;;
71343;SDS011;59146;43.850;25.948;2024-02-28T02:48:45;27.70;;;10.30;;
71343;SDS011;59146;43.850;25.948;2024-02-28T02:51:10;28.15;;;9.27;;
71343;SDS011;59146;43.850;25.948;2024-02-28T02:53:35;28.42;;;10.60;;
71343;SDS011;59146;43.850;25.948;2024-02-28T02:56:03;34.22;;;9.85;;
71343;SDS011;59146;43.850;25.948;2024-02-28T02:58:29;37.63;;;11.18;;
71343;SDS011;59146;43.850;25.948;2024-02-28T03:00:54;27.33;;;10.50;;
71343;SDS011;59146;43.850;25.948;2024-02-28T03:03:20;27.05;;;9.90;;
71343;SDS011;59146;43.850;25.948;2024-02-28T03:05:45;26.23;;;10.88;;
71343;SDS011;59146;43.850;25.948;2024-02-28T03:08:10;29.67;;;10.23;;
71343;SDS011;59146;43.850;25.948;2024-02-28T03:10:36;22.88;;;10.80;;
71343;SDS011;59146;43.850;25.948;2024-02-28T03:13:01;24.73;;;10.77;;
71343;SDS011;59146;43.850;25.948;2024-02-28T03:15:27;31.67;;;9.75;;
71343;SDS011;59146;43.850;25.948;2024-02-28T03:17:52;26.52;;;9.50;;
71343;SDS011;59146;43.850;25.948;2024-02-28T03:20:18;24.58;;;9.82;;
71343;SDS011;59146;43.850;25.948;2024-02-28T03:22:43;27.08;;;9.68;;
71343;SDS011;59146;43.850;25.948;2024-02-28T03:25:09;32.60;;;12.15;;
71343;SDS011;59146;43.850;25.948;2024-02-28T03:27:34;30.08;;;10.95;;
71343;SDS011;59146;43.850;25.948;2024-02-28T03:30:00;26.92;;;10.80;;
71343;SDS011;59146;43.850;25.948;2024-02-28T03:32:26;28.08;;;10.02;;
71343;SDS011;59146;43.850;25.948;2024-02-28T03:34:52;25.88;;;9.57;;
71343;SDS011;59146;43.850;25.948;2024-02-28T03:37:17;29.48;;;10.23;;
71343;SDS011;59146;43.850;25.948;2024-02-28T03:39:43;25.73;;;10.18;;
71343;SDS011;59146;43.850;25.948;2024-02-28T03:42:08;26.08;;;10.38;;
71343;SDS011;59146;43.850;25.948;2024-02-28T03:44:33;24.02;;;11.77;;
71343;SDS011;59146;43.850;25.948;2024-02-28T03:46:59;35.30;;;13.15;;
71343;SDS011;59146;43.850;25.948;2024-02-28T03:49:24;35.28;;;14.75;;
71343;SDS011;59146;43.850;25.948;2024-02-28T03:51:50;43.10;;;15.85;;
71343;SDS011;59146;43.850;25.948;2024-02-28T03:54:15;39.00;;;14.57;;
71343;SDS011;59146;43.850;25.948;2024-02-28T03:56:41;39.30;;;14.98;;
71343;SDS011;59146;43.850;25.948;2024-02-28T03:59:06;39.45;;;13.27;;
71343;SDS011;59146;43.850;25.948;2024-02-28T04:01:32;41.28;;;13.82;;
71343;SDS011;59146;43.850;25.948;2024-02-28T04:03:57;32.55;;;12.65;;
71343;SDS011;59146;43.850;25.948;2024-02-28T04:06:23;33.58;;;12.88;;
71343;SDS011;59146;43.850;25.948;2024-02-28T04:08:49;29.60;;;12.10;;
71343;SDS011;59146;43.850;25.948;2024-02-28T04:11:14;33.50;;;13.60;;
71343;SDS011;59146;43.850;25.948;2024-02-28T04:13:39;33.22;;;14.35;;
71343;SDS011;59146;43.850;25.948;2024-02-28T04:16:06;34.25;;;14.55;;
71343;SDS011;59146;43.850;25.948;2024-02-28T04:18:33;27.33;;;11.95;;
71343;SDS011;59146;43.850;25.948;2024-02-28T04:20:58;31.45;;;12.55;;
71343;SDS011;59146;43.850;25.948;2024-02-28T04:23:24;30.90;;;12.98;;
71343;SDS011;59146;43.850;25.948;2024-02-28T04:25:50;35.05;;;14.50;;
71343;SDS011;59146;43.850;25.948;2024-02-28T04:28:15;34.88;;;14.38;;
71343;SDS011;59146;43.850;25.948;2024-02-28T04:30:40;26.55;;;14.27;;
71343;SDS011;59146;43.850;25.948;2024-02-28T04:33:06;29.85;;;13.52;;
71343;SDS011;59146;43.850;25.948;2024-02-28T04:35:32;34.75;;;13.13;;
71343;SDS011;59146;43.850;25.948;2024-02-28T04:37:57;28.00;;;12.43;;
71343;SDS011;59146;43.850;25.948;2024-02-28T04:40:23;33.28;;;13.23;;
71343;SDS011;59146;43.850;25.948;2024-02-28T04:42:48;39.53;;;14.20;;
71343;SDS011;59146;43.850;25.948;2024-02-28T04:45:14;35.53;;;14.73;;
71343;SDS011;59146;43.850;25.948;2024-02-28T04:47:39;36.30;;;14.18;;
71343;SDS011;59146;43.850;25.948;2024-02-28T04:50:05;64.82;;;13.18;;
71343;SDS011;59146;43.850;25.948;2024-02-28T04:52:31;37.53;;;11.48;;
71343;SDS011;59146;43.850;25.948;2024-02-28T04:54:57;42.67;;;12.30;;
71343;SDS011;59146;43.850;25.948;2024-02-28T04:57:23;27.23;;;12.00;;
71343;SDS011;59146;43.850;25.948;2024-02-28T04:59:48;31.02;;;12.75;;
71343;SDS011;59146;43.850;25.948;2024-02-28T05:02:14;58.85;;;12.80;;
71343;SDS011;59146;43.850;25.948;2024-02-28T05:04:39;68.15;;;15.77;;
71343;SDS011;59146;43.850;25.948;2024-02-28T05:07:05;60.55;;;15.48;;
71343;SDS011;59146;43.850;25.948;2024-02-28T05:09:32;53.38;;;15.07;;
71343;SDS011;59146;43.850;25.948;2024-02-28T05:12:04;68.47;;;15.85;;
71343;SDS011;59146;43.850;25.948;2024-02-28T05:14:29;58.30;;;14.85;;
71343;SDS011;59146;43.850;25.948;2024-02-28T05:16:55;64.47;;;16.48;;
71343;SDS011;59146;43.850;25.948;2024-02-28T05:19:20;81.00;;;17.70;;
71343;SDS011;59146;43.850;25.948;2024-02-28T05:21:46;80.35;;;17.40;;
71343;SDS011;59146;43.850;25.948;2024-02-28T05:24:13;70.60;;;18.25;;
71343;SDS011;59146;43.850;25.948;2024-02-28T05:26:38;48.10;;;15.95;;
71343;SDS011;59146;43.850;25.948;2024-02-28T05:29:04;72.18;;;17.58;;
71343;SDS011;59146;43.850;25.948;2024-02-28T05:31:31;109.43;;;18.83;;
71343;SDS011;59146;43.850;25.948;2024-02-28T05:33:57;124.47;;;21.40;;
71343;SDS011;59146;43.850;25.948;2024-02-28T05:36:24;89.80;;;19.10;;
71343;SDS011;59146;43.850;25.948;2024-02-28T05:38:51;85.93;;;19.85;;
71343;SDS011;59146;43.850;25.948;2024-02-28T05:41:18;126.60;;;22.38;;
71343;SDS011;59146;43.850;25.948;2024-02-28T05:43:44;92.00;;;27.15;;
71343;SDS011;59146;43.850;25.948;2024-02-28T05:46:11;82.32;;;25.65;;
71343;SDS011;59146;43.850;25.948;2024-02-28T05:48:36;63.33;;;24.30;;
71343;SDS011;59146;43.850;25.948;2024-02-28T05:51:02;113.18;;;24.17;;
71343;SDS011;59146;43.850;25.948;2024-02-28T05:53:28;114.93;;;26.40;;
71343;SDS011;59146;43.850;25.948;2024-02-28T05:55:57;86.47;;;28.15;;
71343;SDS011;59146;43.850;25.948;2024-02-28T05:58:23;73.47;;;23.35;;
71343;SDS011;59146;43.850;25.948;2024-02-28T06:00:50;87.25;;;26.80;;
71343;SDS011;59146;43.850;25.948;2024-02-28T06:03:16;81.68;;;26.77;;
71343;SDS011;59146;43.850;25.948;2024-02-28T06:05:41;80.45;;;24.85;;
71343;SDS011;59146;43.850;25.948;2024-02-28T06:08:07;76.10;;;27.33;;
71343;SDS011;59146;43.850;25.948;2024-02-28T06:10:32;101.13;;;26.65;;
71343;SDS011;59146;43.850;25.948;2024-02-28T06:12:57;79.30;;;27.58;;
71343;SDS011;59146;43.850;25.948;2024-02-28T06:15:23;69.68;;;25.48;;
71343;SDS011;59146;43.850;25.948;2024-02-28T06:17:48;63.75;;;26.48;;
71343;SDS011;59146;43.850;25.948;2024-02-28T06:20:14;79.22;;;26.88;;
71343;SDS011;59146;43.850;25.948;2024-02-28T06:22:39;73.97;;;25.35;;
71343;SDS011;59146;43.850;25.948;2024-02-28T06:25:05;66.93;;;24.38;;
71343;SDS011;59146;43.850;25.948;2024-02-28T06:27:36;64.95;;;24.58;;
71343;SDS011;59146;43.850;25.948;2024-02-28T06:30:01;62.22;;;25.58;;
71343;SDS011;59146;43.850;25.948;2024-02-28T06:32:28;72.55;;;28.70;;
71343;SDS011;59146;43.850;25.948;2024-02-28T06:34:54;79.75;;;30.52;;
71343;SDS011;59146;43.850;25.948;2024-02-28T06:37:19;67.20;;;23.45;;
71343;SDS011;59146;43.850;25.948;2024-02-28T06:39:44;77.38;;;28.35;;
71343;SDS011;59146;43.850;25.948;2024-02-28T06:42:10;76.22;;;24.58;;
71343;SDS011;59146;43.850;25.948;2024-02-28T06:44:35;65.43;;;25.65;;
71343;SDS011;59146;43.850;25.948;2024-02-28T06:47:01;65.53;;;28.17;;
71343;SDS011;59146;43.850;25.948;2024-02-28T06:49:27;68.10;;;28.25;;
71343;SDS011;59146;43.850;25.948;2024-02-28T06:51:52;58.33;;;26.80;;
71343;SDS011;59146;43.850;25.948;2024-02-28T06:54:18;55.10;;;25.80;;
71343;SDS011;59146;43.850;25.948;2024-02-28T06:56:45;53.65;;;26.85;;
71343;SDS011;59146;43.850;25.948;2024-02-28T06:59:10;55.78;;;23.02;;
71343;SDS011;59146;43.850;25.948;2024-02-28T07:01:36;67.97;;;24.42;;
71343;SDS011;59146;43.850;25.948;2024-02-28T07:04:01;69.70;;;24.25;;
71343;SDS011;59146;43.850;25.948;2024-02-28T07:06:27;69.80;;;26.10;;
71343;SDS011;59146;43.850;25.948;2024-02-28T07:08:52;72.35;;;26.33;;
71343;SDS011;59146;43.850;25.948;2024-02-28T07:11:18;62.00;;;27.65;;
71343;SDS011;59146;43.850;25.948;2024-02-28T07:13:43;62.33;;;27.83;;
71343;SDS011;59146;43.850;25.948;2024-02-28T07:16:09;81.80;;;29.73;;
71343;SDS011;59146;43.850;25.948;2024-02-28T07:18:34;75.32;;;28.55;;
71343;SDS011;59146;43.850;25.948;2024-02-28T07:20:59;80.55;;;26.45;;
71343;SDS011;59146;43.850;25.948;2024-02-28T07:23:25;67.53;;;26.75;;
71343;SDS011;59146;43.850;25.948;2024-02-28T07:25:51;63.03;;;26.60;;
71343;SDS011;59146;43.850;25.948;2024-02-28T07:28:16;66.60;;;24.88;;
71343;SDS011;59146;43.850;25.948;2024-02-28T07:30:43;58.25;;;23.33;;
71343;SDS011;59146;43.850;25.948;2024-02-28T07:33:10;62.88;;;24.35;;
71343;SDS011;59146;43.850;25.948;2024-02-28T07:35:45;65.88;;;25.77;;
71343;SDS011;59146;43.850;25.948;2024-02-28T07:38:11;73.47;;;28.10;;
71343;SDS011;59146;43.850;25.948;2024-02-28T07:40:36;73.85;;;31.08;;
71343;SDS011;59146;43.850;25.948;2024-02-28T07:43:02;67.85;;;29.13;;
71343;SDS011;59146;43.850;25.948;2024-02-28T07:45:27;50.38;;;25.50;;
71343;SDS011;59146;43.850;25.948;2024-02-28T07:47:53;49.17;;;24.45;;
71343;SDS011;59146;43.850;25.948;2024-02-28T07:50:18;68.72;;;27.80;;
71343;SDS011;59146;43.850;25.948;2024-02-28T07:52:44;55.50;;;26.55;;
71343;SDS011;59146;43.850;25.948;2024-02-28T07:55:10;53.88;;;26.33;;
71343;SDS011;59146;43.850;25.948;2024-02-28T07:57:35;51.30;;;23.38;;
71343;SDS011;59146;43.850;25.948;2024-02-28T08:00:01;53.60;;;24.95;;
71343;SDS011;59146;43.850;25.948;2024-02-28T08:02:26;49.40;;;21.58;;
71343;SDS011;59146;43.850;25.948;2024-02-28T08:04:52;37.85;;;16.75;;
71343;SDS011;59146;43.850;25.948;2024-02-28T08:07:17;39.33;;;17.23;;
71343;SDS011;59146;43.850;25.948;2024-02-28T08:09:42;30.08;;;18.42;;
71343;SDS011;59146;43.850;25.948;2024-02-28T08:12:08;38.08;;;18.73;;
71343;SDS011;59146;43.850;25.948;2024-02-28T08:14:33;37.67;;;18.52;;
71343;SDS011;59146;43.850;25.948;2024-02-28T08:16:59;33.50;;;18.52;;
71343;SDS011;59146;43.850;25.948;2024-02-28T08:19:24;34.45;;;19.17;;
71343;SDS011;59146;43.850;25.948;2024-02-28T08:21:50;32.47;;;16.60;;
71343;SDS011;59146;43.850;25.948;2024-02-28T08:24:15;30.17;;;17.75;;
71343;SDS011;59146;43.850;25.948;2024-02-28T08:26:40;42.70;;;17.10;;
71343;SDS011;59146;43.850;25.948;2024-02-28T08:29:07;36.85;;;18.77;;
71343;SDS011;59146;43.850;25.948;2024-02-28T08:31:32;30.08;;;18.10;;
71343;SDS011;59146;43.850;25.948;2024-02-28T08:33:58;42.30;;;19.92;;
71343;SDS011;59146;43.850;25.948;2024-02-28T08:36:23;44.40;;;21.90;;
71343;SDS011;59146;43.850;25.948;2024-02-28T08:38:49;40.50;;;19.02;;
71343;SDS011;59146;43.850;25.948;2024-02-28T08:41:16;38.75;;;18.42;;
71343;SDS011;59146;43.850;25.948;2024-02-28T08:43:42;41.80;;;19.95;;
71343;SDS011;59146;43.850;25.948;2024-02-28T08:46:07;38.83;;;20.90;;
71343;SDS011;59146;43.850;25.948;2024-02-28T08:48:33;44.33;;;22.40;;
71343;SDS011;59146;43.850;25.948;2024-02-28T08:50:59;47.67;;;22.58;;
71343;SDS011;59146;43.850;25.948;2024-02-28T08:53:24;43.10;;;20.48;;
71343;SDS011;59146;43.850;25.948;2024-02-28T08:55:50;52.00;;;23.38;;
71343;SDS011;59146;43.850;25.948;2024-02-28T08:58:15;60.25;;;25.52;;
71343;SDS011;59146;43.850;25.948;2024-02-28T09:00:41;59.88;;;26.25;;
71343;SDS011;59146;43.850;25.948;2024-02-28T09:03:07;54.63;;;25.77;;
71343;SDS011;59146;43.850;25.948;2024-02-28T09:05:32;60.47;;;25.05;;
71343;SDS011;59146;43.850;25.948;2024-02-28T09:07:58;44.30;;;23.27;;
71343;SDS011;59146;43.850;25.948;2024-02-28T09:10:23;51.35;;;24.15;;
71343;SDS011;59146;43.850;25.948;2024-02-28T09:12:52;52.28;;;25.17;;
71343;SDS011;59146;43.850;25.948;2024-02-28T09:15:17;48.08;;;23.60;;
71343;SDS011;59146;43.850;25.948;2024-02-28T09:17:43;52.90;;;24.02;;
71343;SDS011;59146;43.850;25.948;2024-02-28T09:20:09;46.28;;;22.33;;
71343;SDS011;59146;43.850;25.948;2024-02-28T09:22:35;48.55;;;22.02;;
71343;SDS011;59146;43.850;25.948;2024-02-28T09:25:00;49.97;;;23.20;;
71343;SDS011;59146;43.850;25.948;2024-02-28T09:27:29;43.22;;;23.15;;
71343;SDS011;59146;43.850;25.948;2024-02-28T09:29:55;48.08;;;22.73;;
71343;SDS011;59146;43.850;25.948;2024-02-28T09:32:20;41.33;;;22.48;;
71343;SDS011;59146;43.850;25.948;2024-02-28T09:34:46;45.22;;;21.58;;
71343;SDS011;59146;43.850;25.948;2024-02-28T09:37:12;55.90;;;24.70;;
71343;SDS011;59146;43.850;25.948;2024-02-28T09:39:38;51.75;;;23.15;;
71343;SDS011;59146;43.850;25.948;2024-02-28T09:42:05;46.78;;;22.90;;
71343;SDS011;59146;43.850;25.948;2024-02-28T09:44:31;29.90;;;17.02;;
71343;SDS011;59146;43.850;25.948;2024-02-28T09:46:57;36.22;;;17.98;;
71343;SDS011;59146;43.850;25.948;2024-02-28T09:49:23;36.47;;;18.13;;
71343;SDS011;59146;43.850;25.948;2024-02-28T09:51:52;36.78;;;18.35;;
71343;SDS011;59146;43.850;25.948;2024-02-28T09:54:17;36.58;;;15.70;;
71343;SDS011;59146;43.850;25.948;2024-02-28T09:56:43;34.08;;;14.65;;
71343;SDS011;59146;43.850;25.948;2024-02-28T09:59:09;28.35;;;13.27;;
71343;SDS011;59146;43.850;25.948;2024-02-28T10:01:37;31.23;;;14.23;;
71343;SDS011;59146;43.850;25.948;2024-02-28T10:04:08;31.42;;;14.07;;
71343;SDS011;59146;43.850;25.948;2024-02-28T10:06:36;28.90;;;14.32;;
71343;SDS011;59146;43.850;25.948;2024-02-28T10:09:01;30.27;;;14.98;;
71343;SDS011;59146;43.850;25.948;2024-02-28T10:11:27;32.58;;;16.25;;
71343;SDS011;59146;43.850;25.948;2024-02-28T10:13:54;33.40;;;16.30;;
71343;SDS011;59146;43.850;25.948;2024-02-28T10:16:20;40.22;;;16.65;;
71343;SDS011;59146;43.850;25.948;2024-02-28T10:18:45;31.30;;;15.57;;
71343;SDS011;59146;43.850;25.948;2024-02-28T10:21:12;29.55;;;14.70;;
71343;SDS011;59146;43.850;25.948;2024-02-28T10:23:40;37.00;;;15.82;;
71343;SDS011;59146;43.850;25.948;2024-02-28T10:26:08;27.50;;;14.27;;
71343;SDS011;59146;43.850;25.948;2024-02-28T10:28:38;32.60;;;14.80;;
71343;SDS011;59146;43.850;25.948;2024-02-28T10:31:05;40.15;;;16.80;;
71343;SDS011;59146;43.850;25.948;2024-02-28T10:33:33;31.73;;;14.30;;
71343;SDS011;59146;43.850;25.948;2024-02-28T10:36:01;31.95;;;14.63;;
71343;SDS011;59146;43.850;25.948;2024-02-28T10:38:27;33.80;;;14.65;;
71343;SDS011;59146;43.850;25.948;2024-02-28T10:40:53;30.17;;;16.10;;
71343;SDS011;59146;43.850;25.948;2024-02-28T10:43:19;28.65;;;14.50;;
71343;SDS011;59146;43.850;25.948;2024-02-28T10:45:45;34.78;;;15.18;;
71343;SDS011;59146;43.850;25.948;2024-02-28T10:48:11;33.67;;;15.95;;
71343;SDS011;59146;43.850;25.948;2024-02-28T10:50:39;31.05;;;14.43;;
71343;SDS011;59146;43.850;25.948;2024-02-28T10:53:05;32.65;;;16.40;;
71343;SDS011;59146;43.850;25.948;2024-02-28T10:55:39;31.60;;;15.25;;
71343;SDS011;59146;43.850;25.948;2024-02-28T10:58:09;29.10;;;15.23;;
71343;SDS011;59146;43.850;25.948;2024-02-28T11:00:36;32.97;;;15.75;;
71343;SDS011;59146;43.850;25.948;2024-02-28T11:03:04;27.60;;;14.48;;
71343;SDS011;59146;43.850;25.948;2024-02-28T11:05:41;33.70;;;14.70;;
71343;SDS011;59146;43.850;25.948;2024-02-28T11:08:08;30.98;;;14.75;;
71343;SDS011;59146;43.850;25.948;2024-02-28T11:10:45;26.38;;;13.00;;
71343;SDS011;59146;43.850;25.948;2024-02-28T11:13:22;28.13;;;14.57;;
71343;SDS011;59146;43.850;25.948;2024-02-28T11:15:48;34.92;;;15.43;;
71343;SDS011;59146;43.850;25.948;2024-02-28T11:18:13;35.45;;;18.60;;
71343;SDS011;59146;43.850;25.948;2024-02-28T11:20:39;31.27;;;16.30;;
71343;SDS011;59146;43.850;25.948;2024-02-28T11:23:07;27.25;;;13.82;;
71343;SDS011;59146;43.850;25.948;2024-02-28T11:25:34;32.47;;;15.30;;
71343;SDS011;59146;43.850;25.948;2024-02-28T11:28:00;34.65;;;15.27;;
71343;SDS011;59146;43.850;25.948;2024-02-28T11:30:25;34.78;;;15.30;;
71343;SDS011;59146;43.850;25.948;2024-02-28T11:32:54;25.65;;;14.23;;
71343;SDS011;59146;43.850;25.948;2024-02-28T11:35:20;32.60;;;13.98;;
71343;SDS011;59146;43.850;25.948;2024-02-28T11:37:46;26.23;;;14.63;;
71343;SDS011;59146;43.850;25.948;2024-02-28T11:40:12;30.20;;;15.15;;
71343;SDS011;59146;43.850;25.948;2024-02-28T11:42:38;37.63;;;15.10;;
71343;SDS011;59146;43.850;25.948;2024-02-28T11:45:09;35.60;;;15.18;;
71343;SDS011;59146;43.850;25.948;2024-02-28T11:47:35;30.30;;;14.15;;
71343;SDS011;59146;43.850;25.948;2024-02-28T11:50:01;31.30;;;15.00;;
71343;SDS011;59146;43.850;25.948;2024-02-28T11:52:28;23.10;;;13.23;;
71343;SDS011;59146;43.850;25.948;2024-02-28T11:54:55;30.63;;;13.77;;
71343;SDS011;59146;43.850;25.948;2024-02-28T11:57:20;25.67;;;14.68;;
71343;SDS011;59146;43.850;25.948;2024-02-28T11:59:46;29.33;;;13.77;;
71343;SDS011;59146;43.850;25.948;2024-02-28T12:02:12;26.17;;;14.18;;
71343;SDS011;59146;43.850;25.948;2024-02-28T12:04:39;25.83;;;13.63;;
71343;SDS011;59146;43.850;25.948;2024-02-28T12:07:08;27.75;;;13.45;;
71343;SDS011;59146;43.850;25.948;2024-02-28T12:09:34;34.38;;;13.68;;
71343;SDS011;59146;43.850;25.948;2024-02-28T12:12:02;25.65;;;12.60;;
71343;SDS011;59146;43.850;25.948;2024-02-28T12:14:32;30.75;;;13.90;;
71343;SDS011;59146;43.850;25.948;2024-02-28T12:17:01;26.75;;;13.40;;
71343;SDS011;59146;43.850;25.948;2024-02-28T12:19:28;30.90;;;12.88;;
71343;SDS011;59146;43.850;25.948;2024-02-28T12:21:53;27.25;;;13.68;;
71343;SDS011;59146;43.850;25.948;2024-02-28T12:24:19;35.55;;;15.57;;
71343;SDS011;59146;43.850;25.948;2024-02-28T12:26:46;31.58;;;14.80;;
71343;SDS011;59146;43.850;25.948;2024-02-28T12:29:11;25.95;;;14.75;;
71343;SDS011;59146;43.850;25.948;2024-02-28T12:31:37;31.52;;;15.27;;
71343;SDS011;59146;43.850;25.948;2024-02-28T12:34:02;25.20;;;14.20;;
71343;SDS011;59146;43.850;25.948;2024-02-28T12:36:31;26.38;;;13.57;;
71343;SDS011;59146;43.850;25.948;2024-02-28T12:38:57;27.88;;;12.95;;
71343;SDS011;59146;43.850;25.948;2024-02-28T12:41:24;29.75;;;13.48;;
71343;SDS011;59146;43.850;25.948;2024-02-28T12:43:50;28.95;;;14.45;;
71343;SDS011;59146;43.850;25.948;2024-02-28T12:46:16;29.98;;;14.98;;
71343;SDS011;59146;43.850;25.948;2024-02-28T12:48:41;30.30;;;13.38;;
71343;SDS011;59146;43.850;25.948;2024-02-28T12:51:08;25.13;;;13.25;;
71343;SDS011;59146;43.850;25.948;2024-02-28T12:53:45;36.10;;;13.20;;
71343;SDS011;59146;43.850;25.948;2024-02-28T12:56:11;31.17;;;13.63;;
71343;SDS011;59146;43.850;25.948;2024-02-28T12:58:36;31.73;;;13.32;;
71343;SDS011;59146;43.850;25.948;2024-02-28T13:01:02;27.52;;;13.52;;
71343;SDS011;59146;43.850;25.948;2024-02-28T13:03:29;21.67;;;12.07;;
71343;SDS011;59146;43.850;25.948;2024-02-28T13:05:55;28.77;;;12.82;;
71343;SDS011;59146;43.850;25.948;2024-02-28T13:08:21;24.67;;;12.55;;
71343;SDS011;59146;43.850;25.948;2024-02-28T13:10:46;26.13;;;12.50;;
71343;SDS011;59146;43.850;25.948;2024-02-28T13:13:12;26.40;;;11.85;;
71343;SDS011;59146;43.850;25.948;2024-02-28T13:15:38;27.63;;;13.48;;
71343;SDS011;59146;43.850;25.948;2024-02-28T13:18:03;24.63;;;12.88;;
71343;SDS011;59146;43.850;25.948;2024-02-28T13:20:34;22.52;;;13.02;;
71343;SDS011;59146;43.850;25.948;2024-02-28T13:22:59;28.25;;;13.10;;
71343;SDS011;59146;43.850;25.948;2024-02-28T13:25:25;23.20;;;12.07;;
71343;SDS011;59146;43.850;25.948;2024-02-28T13:27:51;19.15;;;10.90;;
71343;SDS011;59146;43.850;25.948;2024-02-28T13:30:17;25.80;;;11.68;;
71343;SDS011;59146;43.850;25.948;2024-02-28T13:32:43;23.15;;;10.95;;
71343;SDS011;59146;43.850;25.948;2024-02-28T13:35:08;22.08;;;10.93;;
71343;SDS011;59146;43.850;25.948;2024-02-28T13:37:34;18.02;;;11.43;;
71343;SDS011;59146;43.850;25.948;2024-02-28T13:39:59;20.77;;;11.73;;
71343;SDS011;59146;43.850;25.948;2024-02-28T13:42:25;19.42;;;11.88;;
71343;SDS011;59146;43.850;25.948;2024-02-28T13:44:51;28.75;;;12.57;;
71343;SDS011;59146;43.850;25.948;2024-02-28T13:47:16;24.50;;;12.13;;
71343;SDS011;59146;43.850;25.948;2024-02-28T13:49:42;25.63;;;12.77;;
71343;SDS011;59146;43.850;25.948;2024-02-28T13:52:10;26.90;;;12.32;;
71343;SDS011;59146;43.850;25.948;2024-02-28T13:54:36;24.42;;;12.48;;
71343;SDS011;59146;43.850;25.948;2024-02-28T13:57:02;28.33;;;12.82;;
71343;SDS011;59146;43.850;25.948;2024-02-28T13:59:29;24.10;;;13.00;;
71343;SDS011;59146;43.850;25.948;2024-02-28T14:01:55;20.77;;;12.05;;